Latest Weather Observations for Kununurra Airport

IDW60801

Issued at 6:23 pm WST Monday 17 December 2018 (issued every 10 minutes, with the page automatically refreshed every 10 minutes)

About weather observations | Map of weather stations | Latest weather observations for WA | Other Formats
Station Details ID: 002056 Name: KUNUNURRA AERO Lat: -15.78 Lon: 128.71 Height: 44.0 m
Data from the previous 72 hours. | See also: Recent months at Kununurra Airport
Date/Time
WST
Temp
°C
App
Temp
°C
Dew
Point
°C
Rel
Hum
%
Delta-T
°C
Wind Press
QNH
hPa
Press
MSL
hPa
Rain since
9am
mm
Dir  Spd
km/h
Gust
km/h
Spd
kts
Gust
kts
17/06:00pm 30.2 33.1 21.0 58 6.2 NNE 7 9 4 5 1004.4 1004.0 0.0
17/05:30pm 30.9 32.6 20.2 53 7.1 W 11 13 6 7 1003.4 1003.0 0.0
17/05:00pm 31.9 32.2 19.5 47 8.2 NNE 17 20 9 11 1003.2 1002.8 0.0
17/04:30pm 31.9 33.2 21.7 54 6.9 NNE 17 26 9 14 1003.4 1003.0 0.0
17/04:11pm 33.3 34.3 21.8 51 7.8 N 19 39 10 21 1003.4 1003.0 0.0
17/04:00pm 35.5 39.7 24.1 51 8.0 NNW 9 13 5 7 1002.8 1002.4 0.0
17/03:30pm 36.9 39.9 22.6 43 9.9 W 11 17 6 9 1002.3 1001.9 0.0
17/03:00pm 37.1 39.8 22.8 43 10.0 W 13 17 7 9 1002.4 1002.0 0.0
17/02:31pm 37.2 40.8 24.3 47 9.1 WSW 13 17 7 9 1002.8 1002.4 0.0
17/02:30pm 37.3 40.5 23.7 45 9.6 WSW 13 17 7 9 1002.8 1002.4 0.0
17/02:12pm 36.9 40.1 23.0 44 9.7 W 11 19 6 10 1002.9 1002.5 0.0
17/02:00pm 37.3 40.9 23.7 45 9.6 W 11 17 6 9 1003.0 1002.6 0.0
17/01:30pm 36.8 40.2 24.7 50 8.6 W 15 20 8 11 1003.5 1003.1 0.0
17/01:00pm 36.6 39.6 23.4 46 9.3 WSW 13 19 7 10 1003.9 1003.5 0.0
17/12:30pm 36.0 39.6 24.3 51 8.3 NNW 13 19 7 10 1004.3 1003.9 0.0
17/12:00pm 35.9 39.6 23.2 48 8.9 NW 9 17 5 9 1004.8 1004.4 0.0
17/11:30am 35.3 39.4 23.9 51 8.0 NW 9 13 5 7 1005.1 1004.7 0.0
17/11:00am 34.8 39.2 23.8 53 7.7 NW 7 15 4 8 1005.4 1005.0 0.0
17/10:30am 34.8 39.4 23.8 53 7.7 NNE 6 9 3 5 1005.5 1005.1 0.0
17/10:00am 34.1 38.5 24.4 57 6.8 NNW 9 17 5 9 1005.9 1005.5 0.0
17/09:30am 33.8 37.5 22.2 50 7.9 NW 6 13 3 7 1006.4 1006.0 0.0
17/09:00am 32.8 38.8 26.1 68 4.8 NNW 6 13 3 7 1006.7 1006.4 7.2
17/08:30am 31.4 36.5 25.0 69 4.5 NE 7 11 4 6 1006.9 1006.6 7.2
17/08:00am 31.3 37.5 25.2 70 4.3 NE 2 7 1 4 1007.0 1006.7 7.2
17/07:30am 30.2 35.7 23.4 67 4.7 CALM 0 0 0 0 1006.7 1006.4 7.2
17/07:00am 29.2 33.5 22.7 68 4.4 S 4 7 2 4 1006.6 1006.3 7.2
17/06:30am 28.6 32.6 23.1 72 3.8 SSE 7 9 4 5 1006.5 1006.1 7.2
17/06:00am 27.5 32.2 23.9 81 2.5 S 6 6 3 3 1006.2 1005.8 7.2
17/05:30am 26.7 31.3 24.2 86 1.7 SE 7 9 4 5 1005.8 1005.4 7.2
17/05:00am 25.8 31.2 23.8 89 1.4 NNE 2 6 1 3 1005.3 1004.9 7.2
17/04:30am 26.0 30.4 23.5 86 1.7 NNW 6 9 3 5 1004.7 1004.3 7.2
17/04:00am 26.0 29.6 23.1 84 2.0 NW 9 13 5 7 1004.6 1004.2 7.2
17/03:30am 26.1 30.4 23.6 86 1.7 WNW 7 13 4 7 1004.5 1004.1 7.2
17/03:00am 25.9 30.0 23.2 85 1.8 WNW 7 9 4 5 1004.7 1004.3 7.2
17/02:30am 26.3 31.5 22.8 81 2.4 CALM 0 0 0 0 1005.3 1004.9 7.2
17/02:00am 26.9 29.3 21.6 72 3.5 ESE 11 13 6 7 1005.0 1004.6 7.2
17/01:30am 26.5 28.2 21.7 75 3.2 ESE 15 19 8 10 1004.7 1004.3 7.2
17/01:00am 26.3 28.8 22.4 79 2.6 E 13 15 7 8 1004.1 1003.7 7.2
17/12:30am 26.9 28.0 21.2 71 3.8 NE 17 24 9 13 1003.6 1003.2 7.2
17/12:00am 27.2 26.8 21.0 69 4.1 SSW 24 32 13 17 1003.0 1002.6 7.2
 
Date/Time
WST
Temp
°C
App
Temp
°C
Dew
Point
°C
Rel
Hum
%
Delta-T
°C
Wind Press
QNH
hPa
Press
MSL
hPa
Rain since
9am
mm
Dir  Spd
km/h
Gust
km/h
Spd
kts
Gust
kts
16/11:30pm 26.6 25.7 20.7 70 3.9 WSW 26 35 14 19 1003.3 1002.9 7.2
16/11:00pm 25.4 26.0 22.1 82 2.2 WSW 22 28 12 15 1004.5 1004.1 7.2
16/10:30pm 25.4 26.2 21.7 80 2.5 WSW 20 32 11 17 1005.4 1005.0 6.8
16/10:00pm 25.1 28.8 22.2 84 1.9 SSE 6 7 3 4 1006.8 1006.5 6.6
16/09:30pm 24.7 26.8 23.1 91 1.1 SW 17 20 9 11 1007.1 1006.8 6.0
16/09:00pm 24.7 27.6 21.8 84 1.9 NNW 9 11 5 6 1006.9 1006.6 5.8
16/08:30pm 24.8 25.3 21.1 80 2.4 NW 20 32 11 17 1007.2 1006.9 5.8
16/08:14pm 24.1 24.4 21.6 86 1.7 W 22 28 12 15 1008.4 1008.1 5.8
16/08:00pm 24.5 25.8 22.4 88 1.4 WNW 19 39 10 21 1010.0 1009.7 5.8
16/07:52pm 23.5 22.2 22.5 94 0.7 WSW 33 46 18 25 1010.4 1010.1 4.8
16/07:48pm 23.3 21.4 22.1 93 0.8 SSW 35 52 19 28 1009.9 1009.6 4.8
16/07:45pm 23.3 20.6 22.6 96 0.5 SSW 41 67 22 36 1010.0 1009.7 3.8
16/07:30pm 24.0 21.2 21.7 87 1.5 S 39 70 21 38 1009.0 1008.7 0.0
16/07:29pm 24.2 21.4 21.7 86 1.7 S 39 70 21 38 1008.9 1008.6 0.0
16/07:22pm 29.4 27.7 20.5 58 5.9 SE 30 59 16 32 1008.2 1007.9 0.0
16/07:20pm 30.2 28.0 20.4 55 6.5 SE 32 57 17 31 1007.9 1007.6 0.0
16/07:08pm 30.6 27.2 19.9 52 7.1 E 37 56 20 30 1005.9 1005.5 0.0
16/07:00pm 31.2 30.5 20.2 52 7.3 NE 24 50 13 27 1006.0 1005.6 0.0
16/06:30pm 34.1 36.7 24.9 58 6.5 N 20 33 11 18 1004.3 1003.9 0.0
16/06:00pm 34.9 37.8 25.4 58 6.8 NNE 20 32 11 17 1003.1 1002.7 0.0
16/05:30pm 35.6 39.0 25.8 57 7.0 NNE 19 26 10 14 1002.5 1002.1 0.0
16/05:00pm 37.8 40.7 23.1 43 10.3 N 13 17 7 9 1001.7 1001.3 0.0
16/04:30pm 38.7 41.3 22.7 40 11.1 NNW 13 19 7 10 1001.4 1001.0 0.0
16/04:00pm 39.1 40.9 22.6 38 11.5 N 17 19 9 10 1001.6 1001.2 0.0
16/03:30pm 39.2 42.4 22.3 38 11.7 N 9 13 5 7 1001.7 1001.3 0.0
16/03:00pm 39.0 41.7 22.1 37 11.7 N 11 17 6 9 1002.0 1001.6 0.0
16/02:30pm 39.6 42.8 23.0 38 11.6 N 11 17 6 9 1002.1 1001.7 0.0
16/02:00pm 39.0 42.3 22.5 38 11.5 NW 9 19 5 10 1002.3 1001.9 0.0
16/01:30pm 39.1 43.3 23.4 40 11.0 NW 7 19 4 10 1002.9 1002.5 0.0
16/01:12pm 38.7 41.3 22.7 40 11.1 NNW 13 24 7 13 1003.3 1002.9 0.0
16/01:00pm 38.5 42.0 22.9 40 10.9 NW 9 17 5 9 1003.4 1003.0 0.0
16/12:54pm 38.4 41.7 23.2 41 10.6 NNW 11 19 6 10 1003.5 1003.1 0.0
16/12:30pm 37.9 41.0 22.8 42 10.5 W 11 17 6 9 1003.8 1003.4 0.0
16/12:00pm 37.2 41.0 24.0 46 9.3 NNW 11 19 6 10 1004.3 1003.9 0.0
16/11:49am 37.1 41.0 24.2 47 9.1 NW 11 17 6 9 1004.4 1004.0 0.0
16/11:36am 37.0 41.4 24.5 48 8.9 N 9 15 5 8 1004.7 1004.3 0.0
16/11:30am 36.5 40.5 24.4 50 8.6 NW 11 19 6 10 1004.8 1004.4 0.0
16/11:00am 36.3 40.6 24.2 49 8.6 WNW 9 13 5 7 1005.1 1004.7 0.0
16/10:30am 35.8 39.0 24.4 51 8.1 WNW 15 24 8 13 1005.4 1005.0 0.0
16/10:00am 35.2 38.9 24.5 54 7.6 WNW 13 20 7 11 1005.8 1005.4 0.0
16/09:30am 34.4 38.0 24.3 55 7.1 NNW 13 22 7 12 1006.1 1005.7 0.0
16/09:00am 33.6 37.6 25.0 60 6.1 NW 13 20 7 11 1006.5 1006.1 0.0
16/08:53am 33.5 37.4 24.9 60 6.1 NW 13 19 7 10 1006.6 1006.3 0.0
16/08:30am 33.0 37.3 25.5 64 5.3 NNW 13 17 7 9 1006.7 1006.4 0.0
16/08:09am 32.1 36.3 25.9 70 4.4 N 15 19 8 10 1006.7 1006.4 0.0
16/08:00am 31.9 36.5 26.0 71 4.2 N 13 20 7 11 1006.7 1006.4 0.0
16/07:55am 31.7 35.8 25.8 71 4.2 N 15 24 8 13 1006.7 1006.4 0.0
16/07:48am 31.8 36.4 25.9 71 4.2 N 13 19 7 10 1006.7 1006.4 0.0
16/07:36am 31.4 35.8 26.2 74 3.7 N 15 20 8 11 1006.9 1006.6 0.0
16/07:34am 31.3 35.5 25.9 73 3.9 N 15 20 8 11 1006.9 1006.6 0.0
16/07:30am 31.3 35.6 26.1 74 3.7 N 15 20 8 11 1006.9 1006.6 0.0
16/07:00am 31.2 35.5 26.7 77 3.2 N 17 20 9 11 1006.9 1006.6 0.0
16/06:51am 30.7 34.5 26.4 78 3.1 N 19 22 10 12 1006.9 1006.6 0.0
16/06:30am 30.0 35.0 26.6 82 2.4 N 13 17 7 9 1006.9 1006.6 0.0
16/06:00am 29.4 34.4 26.6 85 2.0 NNE 13 19 7 10 1006.6 1006.3 0.0
16/05:30am 29.0 34.2 26.8 88 1.6 NNE 13 17 7 9 1006.3 1005.9 0.0
16/05:00am 28.7 34.0 26.5 88 1.6 NNE 11 15 6 8 1005.6 1005.2 0.0
16/04:30am 28.8 33.8 26.6 88 1.6 NE 13 20 7 11 1005.4 1005.0 0.0
16/04:00am 28.6 35.0 26.6 89 1.4 ENE 6 7 3 4 1004.9 1004.5 0.0
16/03:30am 28.7 34.4 26.5 88 1.6 E 9 11 5 6 1004.4 1004.0 0.0
16/03:00am 28.8 36.2 26.4 87 1.7 CALM 0 0 0 0 1004.1 1003.7 0.0
16/02:30am 29.0 35.6 26.4 86 1.9 N 4 7 2 4 1004.1 1003.7 0.0
16/02:00am 29.1 35.4 26.5 86 1.9 NE 6 7 3 4 1004.2 1003.8 0.0
16/01:30am 29.1 35.3 26.7 87 1.7 N 7 11 4 6 1004.2 1003.8 0.0
16/01:00am 29.1 35.2 26.5 86 1.9 N 7 11 4 6 1003.9 1003.5 0.0
16/12:30am 29.3 34.3 26.5 85 2.0 N 13 19 7 10 1004.0 1003.6 0.0
16/12:00am 29.4 33.9 26.4 84 2.1 NNE 15 22 8 12 1004.2 1003.8 0.0
 
Date/Time
WST
Temp
°C
App
Temp
°C
Dew
Point
°C
Rel
Hum
%
Delta-T
°C
Wind Press
QNH
hPa
Press
MSL
hPa
Rain since
9am
mm
Dir  Spd
km/h
Gust
km/h
Spd
kts
Gust
kts
15/11:30pm 29.3 34.0 26.1 83 2.3 N 13 17 7 9 1004.4 1004.0 0.0
15/11:00pm 29.4 34.0 26.0 82 2.4 NNE 13 19 7 10 1004.4 1004.0 0.0
15/10:32pm 29.6 34.2 26.0 81 2.6 N 13 17 7 9 1004.7 1004.3 0.0
15/10:30pm 29.6 34.1 25.8 80 2.7 N 13 17 7 9 1004.7 1004.3 0.0
15/10:26pm 29.7 34.3 25.9 80 2.7 N 13 17 7 9 1004.6 1004.2 0.0
15/10:12pm 29.8 34.3 25.8 79 2.8 N 13 17 7 9 1004.7 1004.3 0.0
15/10:00pm 30.0 33.9 25.5 77 3.2 N 15 20 8 11 1004.6 1004.2 0.0
15/09:55pm 30.0 33.9 25.5 77 3.2 N 15 20 8 11 1004.6 1004.2 0.0
15/09:38pm 30.1 33.8 25.2 75 3.5 N 15 20 8 11 1004.7 1004.3 0.0
15/09:35pm 30.1 33.8 25.2 75 3.5 N 15 19 8 10 1004.7 1004.3 0.0
15/09:30pm 30.1 33.6 24.9 73 3.7 N 15 20 8 11 1004.6 1004.2 0.0
15/09:23pm 30.1 33.6 24.9 73 3.7 N 15 20 8 11 1004.6 1004.2 0.0
15/09:00pm 30.2 34.1 24.8 73 3.8 N 13 17 7 9 1004.3 1003.9 0.0
15/08:30pm 30.8 34.3 24.9 71 4.2 N 15 19 8 10 1003.9 1003.5 0.0
15/08:00pm 31.3 34.1 24.9 69 4.5 N 19 26 10 14 1003.4 1003.0 0.0
15/07:36pm 31.6 34.3 24.7 67 4.9 N 19 26 10 14 1002.9 1002.5 0.0
15/07:30pm 31.9 34.4 24.7 65 5.1 N 20 26 11 14 1002.8 1002.4 0.0
15/07:25pm 32.0 34.2 24.8 65 5.1 N 22 28 12 15 1002.8 1002.4 0.0
15/07:00pm 32.6 34.6 24.6 62 5.6 NNE 22 28 12 15 1002.4 1002.0 0.0
15/06:59pm 32.6 34.8 24.9 64 5.4 NNE 22 28 12 15 1002.4 1002.0 0.0
15/06:30pm 33.5 35.4 24.4 59 6.4 NNE 22 28 12 15 1002.0 1001.6 0.0
15/06:28pm 33.6 35.6 24.5 59 6.4 NNE 22 28 12 15 1002.1 1001.7 0.0
15/06:00pm 34.5 36.8 24.4 55 7.1 NNE 20 30 11 16 1001.8 1001.4 0.0
15/05:30pm 35.5 39.9 24.4 52 7.8 N 9 9 5 5 1001.1 1000.7 0.0
15/05:00pm 37.1 40.2 22.8 43 10.0 N 11 15 6 8 1000.8 1000.4 0.0
15/04:30pm 38.3 40.3 21.5 38 11.5 NW 13 19 7 10 1000.7 1000.3 0.0
15/04:00pm 39.0 40.3 21.6 36 12.0 NW 17 20 9 11 1000.6 1000.2 0.0
15/03:30pm 38.5 40.0 21.2 36 11.8 NNW 15 19 8 10 1000.5 1000.1 0.0
15/03:00pm 38.9 40.8 22.8 39 11.3 NNW 17 24 9 13 1000.8 1000.4 0.0
15/02:30pm 38.7 40.3 22.2 38 11.4 NW 17 24 9 13 1001.2 1000.8 0.0
15/02:00pm 38.3 40.3 22.3 39 11.1 NW 15 22 8 12 1001.5 1001.1 0.0
15/01:30pm 38.1 40.6 22.5 40 10.8 WNW 13 20 7 11 1001.7 1001.3 0.0
15/01:00pm 38.3 41.2 23.1 41 10.7 NNW 13 22 7 12 1002.0 1001.6 0.0
15/12:30pm 38.0 41.3 23.2 42 10.4 NW 11 20 6 11 1002.3 1001.9 0.0
15/12:00pm 37.7 40.9 23.0 43 10.3 N 11 22 6 12 1002.8 1002.4 0.0
15/11:30am 37.0 39.6 22.7 43 9.9 NW 13 20 7 11 1003.5 1003.1 0.0
15/11:00am 36.4 39.1 22.9 45 9.4 W 13 17 7 9 1003.9 1003.5 0.0
15/10:30am 35.5 39.3 23.5 50 8.4 N 9 13 5 7 1004.2 1003.8 0.0
15/10:00am 35.4 39.9 24.0 51 8.0 NNE 7 13 4 7 1004.6 1004.2 0.0
15/09:30am 35.0 38.4 23.3 50 8.1 WNW 11 17 6 9 1005.1 1004.7 0.0
15/09:00am 34.4 37.1 22.8 51 8.0 WNW 13 22 7 12 1005.1 1004.7 0.0
15/08:30am 33.4 35.7 22.8 53 7.3 WNW 15 20 8 11 1005.4 1005.0 0.0
15/08:00am 33.0 36.4 22.7 54 7.1 W 9 19 5 10 1005.5 1005.1 0.0
15/07:30am 32.0 35.9 23.0 59 6.2 SW 7 11 4 6 1005.5 1005.1 0.0
15/07:00am 30.4 35.7 25.0 73 3.8 NW 6 7 3 4 1005.6 1005.2 0.0
15/06:30am 30.1 36.1 24.9 73 3.7 N 2 6 1 3 1005.4 1005.0 0.0
15/06:00am 28.4 33.7 24.4 79 2.8 N 4 6 2 3 1005.2 1004.8 0.0
15/05:45am 27.7 34.0 26.5 93 0.9 N 6 9 3 5 1005.0 1004.6 0.0
15/05:35am 27.2 33.4 26.3 95 0.6 NNE 6 9 3 5 1004.9 1004.5 0.0
15/05:30am 27.1 33.6 26.2 95 0.6 NNE 4 9 2 5 1004.9 1004.5 0.0
15/05:17am 27.1 34.5 26.4 96 0.5 CALM 0 0 0 0 1004.7 1004.3 0.0
15/05:00am 27.0 33.5 26.3 96 0.5 N 4 6 2 3 1004.4 1004.0 0.0
15/04:46am 27.0 33.2 26.3 96 0.5 N 6 6 3 3 1004.1 1003.7 0.0
15/04:44am 27.0 33.2 26.3 96 0.5 N 6 7 3 4 1004.1 1003.7 0.0
15/04:30am 27.0 33.5 26.3 96 0.5 WNW 4 6 2 3 1004.1 1003.7 0.0
15/04:00am 27.2 34.1 26.3 95 0.6 NW 2 6 1 3 1003.6 1003.2 0.0
15/03:30am 27.4 33.4 26.3 94 0.8 NNW 7 9 4 5 1003.5 1003.1 0.0
15/03:00am 27.4 33.6 26.3 94 0.8 NNW 6 7 3 4 1003.3 1002.9 0.0
15/02:51am 27.5 33.7 26.3 93 0.9 NNW 6 9 3 5 1003.3 1002.9 0.0
15/02:50am 27.5 33.5 26.3 93 0.9 NNW 7 9 4 5 1003.3 1002.9 0.0
15/02:30am 27.5 33.7 26.3 93 0.9 N 6 7 3 4 1003.1 1002.7 0.0
15/02:21am 27.4 34.2 26.2 93 0.9 NNW 2 6 1 3 1003.0 1002.6 0.0
15/02:19am 27.4 34.6 26.2 93 0.9 CALM 0 6 0 3 1003.0 1002.6 0.0
15/02:01am 27.4 33.4 26.0 92 1.0 NNE 6 6 3 3 1003.0 1002.6 0.0
15/02:00am 27.4 33.4 26.0 92 1.0 NNE 6 7 3 4 1003.0 1002.6 0.0
15/01:30am 28.2 34.2 26.4 90 1.3 NW 7 9 4 5 1002.9 1002.5 0.0
15/01:15am 28.1 33.9 26.1 89 1.4 NW 7 9 4 5 1002.9 1002.5 0.0
15/01:00am 28.0 33.8 25.8 88 1.6 W 6 7 3 4 1003.0 1002.6 0.0
15/12:58am 28.0 34.0 26.0 89 1.4 W 6 9 3 5 1003.0 1002.6 0.0
15/12:35am 27.9 33.7 25.7 88 1.6 WNW 6 7 3 4 1003.1 1002.7 0.0
15/12:30am 28.1 34.1 26.1 89 1.4 NNE 6 7 3 4 1003.1 1002.7 0.0
15/12:00am 28.2 32.7 25.8 87 1.7 NNE 13 15 7 8 1003.2 1002.8 0.0
 
Date/Time
WST
Temp
°C
App
Temp
°C
Dew
Point
°C
Rel
Hum
%
Delta-T
°C
Wind Press
QNH
hPa
Press
MSL
hPa
Rain since
9am
mm
Dir  Spd
km/h
Gust
km/h
Spd
kts
Gust
kts
14/11:49pm 28.1 32.4 25.5 86 1.8 NNE 13 15 7 8 1003.2 1002.8 0.0
14/11:30pm 28.4 33.0 25.4 84 2.1 N 11 17 6 9 1003.5 1003.1 0.0
14/11:23pm 28.3 33.5 25.1 83 2.2 NNE 7 9 4 5 1003.7 1003.3 0.0
14/11:05pm 28.3 33.2 25.3 84 2.1 ENE 9 13 5 7 1003.8 1003.4 0.0
14/11:00pm 28.2 32.8 25.4 85 2.0 NE 11 17 6 9 1003.8 1003.4 0.0
14/10:46pm 28.0 32.0 25.0 84 2.1 N 13 17 7 9 1004.0 1003.6 0.0
14/10:30pm 28.4 32.6 24.8 81 2.5 N 11 13 6 7 1004.6 1004.2 0.0
14/10:00pm 28.7 33.3 24.7 79 2.8 NNW 9 11 5 6 1004.9 1004.5 0.0
14/09:30pm 28.8 31.8 24.6 78 2.9 NNE 17 20 9 11 1004.1 1003.7 0.0
14/09:00pm 29.6 33.7 24.5 74 3.6 WNW 11 15 6 8 1005.3 1004.9 0.0
14/08:30pm 29.9 31.7 24.3 72 3.9 NNE 22 28 12 15 1003.9 1003.5 0.0
14/08:00pm 30.7 33.8 24.8 71 4.2 N 17 22 9 12 1004.3 1003.9 0.0
14/07:30pm 31.1 36.0 25.2 71 4.2 N 9 13 5 7 1003.4 1003.0 0.0
14/07:00pm 31.3 35.5 25.4 71 4.2 NNE 13 15 7 8 1003.2 1002.8 0.0
14/06:30pm 31.3 35.7 25.6 71 4.0 NNE 13 13 7 7 1003.1 1002.7 0.0

Other Formats:

Comma delimited format used in spreadsheet applications
http://www.bom.gov.au/fwo/IDW60801/IDW60801.94216.axf

JavaScript Object Notation format (JSON) in row-major order
http://www.bom.gov.au/fwo/IDW60801/IDW60801.94216.json